Time;durP1;ratioP1;P1;durP2;ratioP2;P2;SDS_P1;SDS_P2;PMS_P1;PMS_P2;Temp;Humidity;BMP_temperature;BMP_pressure;BME280_temperature;BME280_humidity;BME280_pressure;Samples;Min_cycle;Max_cycle;Signal;HPM_P1;HPM_P2
2022/06/09 00:00:30;;;;;;;0.00;0.00;;;17.90;91.10;;;;;;4120226;28;20113;-76
2022/06/09 00:02:59;;;;;;;0.00;0.00;;;17.90;91.00;;;;;;4120281;28;20105;-74
2022/06/09 00:05:28;;;;;;;0.00;0.00;;;18.00;91.10;;;;;;4133754;28;20058;-73
2022/06/09 00:07:52;;;;;;;0.00;0.00;;;18.00;91.00;;;;;;4106590;28;20058;-73
2022/06/09 00:10:26;;;;;;;0.00;0.00;;;18.00;91.00;;;;;;4119892;28;20061;-74
2022/06/09 00:12:49;;;;;;;0.00;0.00;;;18.10;91.00;;;;;;4133239;28;20056;-75
2022/06/09 00:15:21;;;;;;;0.00;0.00;;;18.10;90.90;;;;;;4119000;28;20058;-74
2022/06/09 00:17:50;;;;;;;0.00;0.00;;;18.00;90.70;;;;;;4107609;28;20059;-76
2022/06/09 00:20:18;;;;;;;0.00;0.00;;;18.00;90.70;;;;;;4133383;28;20050;-75
2022/06/09 00:22:55;;;;;;;0.00;0.00;;;18.00;90.70;;;;;;4133386;28;20401;-74
2022/06/09 00:25:21;;;;;;;0.00;0.00;;;18.00;90.60;;;;;;4155909;28;20050;-74
2022/06/09 00:28:00;;;;;;;0.00;0.00;;;18.00;90.40;;;;;;4183697;28;20049;-75
2022/06/09 00:30:25;;;;;;;0.00;0.00;;;17.90;90.10;;;;;;4183897;28;20045;-76
2022/06/09 00:32:48;;;;;;;0.00;0.00;;;17.80;90.00;;;;;;4183653;28;20053;-76
2022/06/09 00:35:14;;;;;;;0.00;0.00;;;17.80;89.80;;;;;;4168929;28;20120;-72
2022/06/09 00:37:47;;;;;;;0.00;0.00;;;17.70;89.30;;;;;;4183637;28;20077;-74
2022/06/09 00:40:15;;;;;;;0.00;0.00;;;17.70;89.60;;;;;;4169163;28;20140;-73
2022/06/09 00:42:37;;;;;;;0.00;0.00;;;17.70;89.20;;;;;;4183542;28;20049;-74
2022/06/09 00:45:25;;;;;;;0.00;0.00;;;17.60;89.30;;;;;;4169677;28;20049;-75
2022/06/09 00:47:49;;;;;;;0.00;0.00;;;17.70;89.80;;;;;;4168793;28;20108;-74
2022/06/09 00:50:17;;;;;;;0.00;0.00;;;17.70;89.90;;;;;;4155062;28;20100;-73
2022/06/09 00:52:44;;;;;;;0.00;0.00;;;17.70;89.90;;;;;;4141446;28;20483;-76
2022/06/09 00:55:21;;;;;;;0.00;0.00;;;17.50;89.50;;;;;;4182780;28;20084;-72
2022/06/09 00:57:57;;;;;;;0.00;0.00;;;17.50;89.70;;;;;;4168782;28;20108;-72
2022/06/09 01:00:50;;;;;;;0.00;0.00;;;17.50;89.90;;;;;;4182845;28;20123;-76
2022/06/09 01:03:23;;;;;;;0.00;0.00;;;17.50;89.70;;;;;;4168576;28;20061;-73
2022/06/09 01:05:51;;;;;;;0.00;0.00;;;17.50;89.90;;;;;;4168906;28;20673;-76
2022/06/09 01:08:25;;;;;;;0.00;0.00;;;17.50;89.70;;;;;;4183158;28;20123;-72
2022/06/09 01:10:50;;;;;;;0.00;0.00;;;17.50;89.60;;;;;;4168890;28;20373;-73
2022/06/09 01:13:22;;;;;;;0.00;0.00;;;17.40;89.70;;;;;;4182243;28;20388;-75
2022/06/09 01:16:10;;;;;;;0.00;0.00;;;17.40;89.80;;;;;;4168436;28;20062;-74
2022/06/09 01:18:58;;;;;;;0.00;0.00;;;17.40;89.90;;;;;;4154643;28;20050;-73
2022/06/09 01:21:46;;;;;;;0.00;0.00;;;17.40;89.80;;;;;;4155277;28;20061;-73
2022/06/09 01:24:23;;;;;;;0.00;0.00;;;17.40;89.80;;;;;;4154866;28;20065;-73
2022/06/09 01:27:04;;;;;;;0.00;0.00;;;17.30;89.10;;;;;;4168117;28;20049;-74
2022/06/09 01:29:59;;;;;;;0.00;0.00;;;17.20;88.80;;;;;;4182677;28;20048;-73
2022/06/09 01:32:32;;;;;;;0.00;0.00;;;17.20;88.50;;;;;;4154519;28;20065;-77
2022/06/09 01:34:58;;;;;;;0.00;0.00;;;17.20;87.90;;;;;;4167906;28;20084;-72
2022/06/09 01:37:35;;;;;;;0.00;0.00;;;17.20;87.60;;;;;;4154623;28;20507;-74
2022/06/09 01:39:59;;;;;;;0.00;0.00;;;17.20;87.50;;;;;;4181698;28;20110;-77
2022/06/09 01:42:34;;;;;;;0.00;0.00;;;17.20;87.40;;;;;;4168462;28;20057;-74
2022/06/09 01:45:13;;;;;;;0.00;0.00;;;17.10;86.70;;;;;;4168037;28;20053;-74
2022/06/09 01:48:00;;;;;;;0.00;0.00;;;17.20;86.60;;;;;;4154659;28;20095;-74
2022/06/09 01:50:54;;;;;;;0.00;0.00;;;17.20;86.30;;;;;;4152944;28;20054;-75
2022/06/09 01:53:53;;;;;;;0.00;0.00;;;17.20;86.20;;;;;;4153956;28;20069;-73
2022/06/09 01:56:29;;;;;;;0.00;0.00;;;17.20;86.70;;;;;;4154318;28;20476;-74
2022/06/09 01:59:00;;;;;;;0.00;0.00;;;17.30;86.80;;;;;;4168030;28;20531;-75
2022/06/09 02:01:30;;;;;;;0.00;0.00;;;17.20;86.70;;;;;;4167555;28;20135;-73
2022/06/09 02:03:59;;;;;;;0.00;0.00;;;17.20;86.70;;;;;;4154038;28;20045;-74
2022/06/09 02:06:24;;;;;;;0.00;0.00;;;17.10;86.20;;;;;;4154160;28;20075;-77
2022/06/09 02:08:49;;;;;;;0.00;0.00;;;17.10;86.40;;;;;;4147529;28;20061;-74
2022/06/09 02:11:16;;;;;;;0.00;0.00;;;17.10;86.30;;;;;;4168104;28;20451;-74
2022/06/09 02:13:50;;;;;;;0.00;0.00;;;17.10;86.10;;;;;;4153913;28;20049;-73
2022/06/09 02:16:17;;;;;;;0.00;0.00;;;17.10;85.80;;;;;;4154149;28;20045;-75
2022/06/09 02:18:45;;;;;;;0.00;0.00;;;17.10;85.60;;;;;;4154684;28;20117;-76
2022/06/09 02:21:08;;;;;;;0.00;0.00;;;17.10;85.40;;;;;;4167815;28;20041;-75
2022/06/09 02:23:33;;;;;;;0.00;0.00;;;17.10;85.30;;;;;;4167733;28;20164;-72
2022/06/09 02:26:00;;;;;;;0.00;0.00;;;17.00;85.30;;;;;;4150110;28;20116;-75
2022/06/09 02:28:23;;;;;;;0.00;0.00;;;17.10;85.10;;;;;;4154612;28;20104;-73
2022/06/09 02:30:48;;;;;;;0.00;0.00;;;17.00;84.80;;;;;;4154552;28;20128;-75
2022/06/09 02:33:17;;;;;;;0.00;0.00;;;17.00;85.10;;;;;;4154745;28;20107;-74
2022/06/09 02:35:45;;;;;;;0.00;0.00;;;17.00;85.10;;;;;;4167538;28;20100;-73
2022/06/09 02:38:12;;;;;;;0.00;0.00;;;16.90;85.00;;;;;;4167397;28;20041;-76
2022/06/09 02:40:39;;;;;;;0.00;0.00;;;16.90;85.00;;;;;;4153723;28;20092;-73
2022/06/09 02:43:01;;;;;;;0.00;0.00;;;16.90;85.20;;;;;;4154006;28;20445;-74
2022/06/09 02:45:24;;;;;;;0.00;0.00;;;16.80;85.10;;;;;;4154202;28;20053;-75
2022/06/09 02:47:49;;;;;;;0.00;0.00;;;16.80;85.30;;;;;;4154049;28;20042;-74
2022/06/09 02:50:12;;;;;;;0.00;0.00;;;16.80;85.30;;;;;;4167553;28;20045;-74
2022/06/09 02:52:34;;;;;;;0.00;0.00;;;16.80;85.40;;;;;;4153679;28;20110;-75
2022/06/09 02:54:58;;;;;;;0.00;0.00;;;16.90;85.40;;;;;;4153718;28;20053;-74
2022/06/09 02:57:25;;;;;;;0.00;0.00;;;16.90;85.30;;;;;;4167100;28;20107;-73
2022/06/09 02:59:47;;;;;;;0.00;0.00;;;16.90;85.00;;;;;;4174373;28;20048;-74
2022/06/09 03:02:11;;;;;;;0.00;0.00;;;16.90;85.10;;;;;;4140374;28;20472;-73
2022/06/09 03:04:33;;;;;;;0.00;0.00;;;16.80;85.20;;;;;;4153624;28;20112;-73
2022/06/09 03:06:58;;;;;;;0.00;0.00;;;16.90;85.20;;;;;;4153437;28;20066;-73
2022/06/09 03:09:20;;;;;;;0.00;0.00;;;16.80;85.20;;;;;;4153641;28;20045;-71
2022/06/09 03:11:48;;;;;;;0.00;0.00;;;16.80;85.30;;;;;;4167200;28;20103;-77
2022/06/09 03:14:15;;;;;;;0.00;0.00;;;16.80;85.30;;;;;;4153474;28;20053;-73
2022/06/09 03:16:37;;;;;;;0.00;0.00;;;16.80;85.20;;;;;;4139792;28;20081;-73
2022/06/09 03:18:59;;;;;;;0.00;0.00;;;16.80;85.30;;;;;;4153468;28;20385;-74
2022/06/09 03:21:22;;;;;;;0.00;0.00;;;16.90;85.00;;;;;;4153655;28;20046;-76
2022/06/09 03:23:44;;;;;;;0.00;0.00;;;16.90;84.70;;;;;;4153659;28;20095;-73
2022/06/09 03:26:11;;;;;;;0.00;0.00;;;16.90;84.80;;;;;;4153369;28;20053;-73
2022/06/09 03:28:34;;;;;;;0.00;0.00;;;16.90;84.50;;;;;;4167113;28;20092;-73
2022/06/09 03:30:59;;;;;;;0.00;0.00;;;16.90;84.60;;;;;;4167337;28;20514;-73
2022/06/09 03:33:22;;;;;;;0.00;0.00;;;16.90;84.60;;;;;;4167126;28;20361;-74
2022/06/09 03:35:44;;;;;;;0.00;0.00;;;16.90;84.60;;;;;;4152932;28;20050;-74
2022/06/09 03:38:06;;;;;;;0.00;0.00;;;16.80;84.50;;;;;;4166977;28;20068;-72
2022/06/09 03:40:28;;;;;;;0.00;0.00;;;16.80;84.70;;;;;;4180551;28;20037;-73
2022/06/09 03:42:51;;;;;;;0.00;0.00;;;16.80;84.50;;;;;;4153071;28;20065;-73
2022/06/09 03:45:13;;;;;;;0.00;0.00;;;16.80;84.70;;;;;;4153113;28;20100;-73
2022/06/09 03:47:38;;;;;;;0.00;0.00;;;16.80;84.40;;;;;;4153222;28;20154;-72
2022/06/09 03:50:00;;;;;;;0.00;0.00;;;16.80;84.40;;;;;;4167473;28;20056;-75
2022/06/09 03:52:22;;;;;;;0.00;0.00;;;16.80;84.60;;;;;;4169942;28;20053;-73
2022/06/09 03:54:48;;;;;;;0.00;0.00;;;16.90;84.60;;;;;;4169881;28;20479;-75
2022/06/09 03:57:11;;;;;;;0.00;0.00;;;16.80;84.70;;;;;;4169928;28;20092;-74
2022/06/09 03:59:35;;;;;;;0.00;0.00;;;16.80;85.10;;;;;;4156488;28;20147;-74
2022/06/09 04:02:08;;;;;;;0.00;0.00;;;16.80;85.10;;;;;;4170095;28;20052;-73
2022/06/09 04:04:32;;;;;;;0.00;0.00;;;16.80;84.90;;;;;;4170023;28;20136;-73
2022/06/09 04:06:54;;;;;;;0.00;0.00;;;16.80;84.70;;;;;;4156561;28;20058;-71
2022/06/09 04:09:16;;;;;;;0.00;0.00;;;16.80;84.70;;;;;;4156261;28;20106;-75
2022/06/09 04:11:41;;;;;;;0.00;0.00;;;16.80;84.90;;;;;;4170397;28;20479;-72
2022/06/09 04:14:03;;;;;;;0.00;0.00;;;16.80;85.70;;;;;;4142674;28;20054;-75
2022/06/09 04:16:29;;;;;;;0.00;0.00;;;16.80;86.70;;;;;;4156601;28;20136;-73
2022/06/09 04:18:55;;;;;;;0.00;0.00;;;16.80;87.70;;;;;;4169730;28;20041;-73
2022/06/09 04:21:20;;;;;;;0.00;0.00;;;16.70;88.00;;;;;;4156097;28;20041;-74
2022/06/09 04:23:44;;;;;;;0.00;0.00;;;16.50;88.40;;;;;;4169431;28;20100;-73
2022/06/09 04:26:06;;;;;;;0.00;0.00;;;16.40;89.20;;;;;;4142562;28;20054;-74
2022/06/09 04:28:31;;;;;;;0.00;0.00;;;16.30;90.00;;;;;;4155621;28;20050;-72
2022/06/09 04:30:55;;;;;;;0.00;0.00;;;16.00;90.30;;;;;;4142309;28;20054;-71
2022/06/09 04:33:19;;;;;;;0.00;0.00;;;15.80;90.60;;;;;;4169638;28;20365;-74
2022/06/09 04:35:41;;;;;;;0.00;0.00;;;15.70;91.10;;;;;;4169037;28;20107;-73
2022/06/09 04:38:03;;;;;;;0.00;0.00;;;15.60;91.50;;;;;;4155828;28;20124;-74
2022/06/09 04:40:27;;;;;;;0.00;0.00;;;15.60;91.70;;;;;;4169219;28;20054;-75
2022/06/09 04:42:51;;;;;;;0.00;0.00;;;15.60;91.80;;;;;;4169242;28;20042;-73
2022/06/09 04:45:16;;;;;;;0.00;0.00;;;15.50;91.90;;;;;;4155129;28;20049;-76
2022/06/09 04:47:38;;;;;;;0.00;0.00;;;15.50;92.00;;;;;;4155528;28;20041;-73
2022/06/09 04:50:05;;;;;;;0.00;0.00;;;15.50;92.00;;;;;;4155921;28;20096;-73
2022/06/09 04:52:29;;;;;;;0.00;0.00;;;15.50;92.10;;;;;;4169490;28;20671;-73
2022/06/09 04:54:53;;;;;;;0.00;0.00;;;15.40;92.40;;;;;;4155312;28;20489;-73
2022/06/09 04:57:15;;;;;;;0.00;0.00;;;15.30;92.70;;;;;;4168866;28;20132;-73
2022/06/09 04:59:39;;;;;;;0.00;0.00;;;15.30;92.70;;;;;;4182755;28;20052;-72
2022/06/09 05:02:03;;;;;;;0.00;0.00;;;15.40;92.70;;;;;;4154582;28;20133;-73
2022/06/09 05:04:31;;;;;;;0.00;0.00;;;15.40;92.80;;;;;;4155906;28;20055;-74
2022/06/09 05:06:56;;;;;;;0.00;0.00;;;15.40;92.60;;;;;;4155476;28;20045;-73
2022/06/09 05:09:18;;;;;;;0.00;0.00;;;15.40;92.60;;;;;;4155196;28;20416;-72
2022/06/09 05:11:43;;;;;;;0.00;0.00;;;15.30;92.80;;;;;;4168850;28;20116;-75
2022/06/09 05:14:10;;;;;;;0.00;0.00;;;15.30;93.00;;;;;;4155392;28;20111;-76
2022/06/09 05:16:32;;;;;;;0.00;0.00;;;15.30;92.90;;;;;;4141638;28;20054;-74
2022/06/09 05:18:54;;;;;;;0.00;0.00;;;15.40;93.00;;;;;;4154914;28;20060;-71
2022/06/09 05:21:21;;;;;;;0.00;0.00;;;15.40;93.00;;;;;;4154929;28;20149;-73
2022/06/09 05:23:43;;;;;;;0.00;0.00;;;15.30;92.90;;;;;;4168682;28;20057;-75
2022/06/09 05:26:10;;;;;;;0.00;0.00;;;15.20;93.10;;;;;;4141577;28;20480;-72
2022/06/09 05:28:35;;;;;;;0.00;0.00;;;15.30;93.10;;;;;;4168335;28;20041;-75
2022/06/09 05:30:57;;;;;;;0.00;0.00;;;15.30;92.80;;;;;;4141153;28;20115;-76
2022/06/09 05:33:23;;;;;;;0.00;0.00;;;15.20;92.50;;;;;;4168347;28;20037;-74
2022/06/09 05:35:48;;;;;;;0.00;0.00;;;15.30;92.40;;;;;;4168218;28;20103;-73
2022/06/09 05:46:30;;;;;;;0.00;0.00;;;15.40;92.20;;;;;;4168357;28;20051;-76
2022/06/09 05:48:52;;;;;;;0.00;0.00;;;15.40;92.50;;;;;;4168046;28;20103;-76
2022/06/09 05:51:17;;;;;;;0.00;0.00;;;15.40;92.60;;;;;;4154382;28;20477;-75
2022/06/09 05:53:43;;;;;;;0.00;0.00;;;15.40;92.40;;;;;;4154319;28;20057;-74
2022/06/09 05:56:06;;;;;;;0.00;0.00;;;15.50;92.30;;;;;;4140547;28;20050;-76
2022/06/09 05:58:28;;;;;;;0.00;0.00;;;15.50;92.10;;;;;;4146691;28;20053;-77
2022/06/09 06:00:50;;;;;;;0.00;0.00;;;15.50;92.10;;;;;;4170767;28;20047;-73
2022/06/09 06:03:14;;;;;;;0.00;0.00;;;15.50;91.90;;;;;;4169107;28;20068;-76
2022/06/09 06:08:17;;;;;;;0.00;0.00;;;15.50;91.90;;;;;;4167774;28;20049;-74
2022/06/09 06:10:39;;;;;;;0.00;0.00;;;15.60;91.90;;;;;;4167729;28;20037;-76
2022/06/09 06:13:01;;;;;;;0.00;0.00;;;15.70;91.90;;;;;;4170140;28;20441;-72
2022/06/09 06:15:29;;;;;;;0.00;0.00;;;15.70;91.80;;;;;;4167392;28;20476;-73
2022/06/09 06:17:54;;;;;;;0.00;0.00;;;15.70;91.90;;;;;;4167564;28;20046;-74
2022/06/09 06:20:16;;;;;;;0.00;0.00;;;15.60;92.00;;;;;;4183080;28;20053;-73
2022/06/09 06:22:38;;;;;;;0.00;0.00;;;15.60;92.20;;;;;;4183820;28;20114;-75
2022/06/09 06:25:04;;;;;;;0.00;0.00;;;15.60;92.10;;;;;;4184237;28;20110;-72
2022/06/09 06:27:31;;;;;;;0.00;0.00;;;15.50;92.10;;;;;;4179270;28;20447;-75
2022/06/09 06:30:06;;;;;;;0.00;0.00;;;15.50;92.10;;;;;;4180011;28;20071;-73
2022/06/09 06:32:32;;;;;;;0.00;0.00;;;15.60;92.30;;;;;;4167323;28;20045;-72
2022/06/09 06:34:53;;;;;;;0.00;0.00;;;15.50;92.20;;;;;;4184125;28;20044;-73
2022/06/09 06:37:15;;;;;;;0.00;0.00;;;15.40;92.00;;;;;;4183672;28;20115;-76
2022/06/09 06:39:40;;;;;;;0.00;0.00;;;15.30;92.30;;;;;;4197511;28;20029;-73
2022/06/09 06:42:04;;;;;;;0.00;0.00;;;15.30;92.50;;;;;;4192603;28;20415;-74
2022/06/09 06:44:32;;;;;;;0.00;0.00;;;15.40;92.60;;;;;;4199881;28;20092;-76
2022/06/09 06:46:54;;;;;;;0.00;0.00;;;15.60;92.70;;;;;;4183300;28;20086;-75
2022/06/09 06:49:17;;;;;;;0.00;0.00;;;15.80;93.00;;;;;;4183463;28;20501;-73
2022/06/09 06:51:41;;;;;;;0.00;0.00;;;16.10;92.70;;;;;;4197438;28;20470;-73
2022/06/09 06:54:05;;;;;;;0.00;0.00;;;16.20;92.60;;;;;;4197544;28;20044;-75
2022/06/09 09:51:52;;;;;;;0.00;0.00;;;20.10;66.00;;;;;;4122823;28;20037;-75
2022/06/09 09:54:44;;;;;;;0.00;0.00;;;19.80;65.50;;;;;;4094893;28;20379;-71
2022/06/09 09:57:14;;;;;;;0.00;0.00;;;19.70;64.80;;;;;;4100006;28;20059;-73
2022/06/09 09:59:53;;;;;;;0.00;0.00;;;19.50;65.20;;;;;;4089992;28;20047;-73
2022/06/09 10:12:39;;;;;;;0.00;0.00;;;19.80;64.00;;;;;;4105848;28;20118;-70
2022/06/09 10:15:09;;;;;;;0.00;0.00;;;20.30;63.50;;;;;;4113381;28;20126;-71
2022/06/09 10:17:41;;;;;;;0.00;0.00;;;20.40;62.90;;;;;;4118747;28;20093;-69
2022/06/09 10:20:29;;;;;;;0.00;0.00;;;20.50;63.10;;;;;;4105444;28;20298;-73
2022/06/09 10:23:16;;;;;;;0.00;0.00;;;20.60;63.10;;;;;;4105735;28;20454;-71
2022/06/09 10:26:04;;;;;;;0.00;0.00;;;20.50;61.90;;;;;;4104685;28;20146;-71
2022/06/09 10:28:49;;;;;;;0.00;0.00;;;20.60;62.80;;;;;;4116745;28;20069;-70
2022/06/09 10:31:41;;;;;;;0.00;0.00;;;20.50;62.50;;;;;;4103223;28;20092;-71
2022/06/09 10:34:30;;;;;;;0.00;0.00;;;20.30;62.80;;;;;;4070600;28;20092;-71
2022/06/09 10:37:01;;;;;;;0.00;0.00;;;20.00;64.00;;;;;;4121371;28;20042;-72
2022/06/09 10:39:49;;;;;;;0.00;0.00;;;19.60;65.30;;;;;;4081435;28;20044;-72
2022/06/09 10:42:32;;;;;;;0.00;0.00;;;19.40;66.00;;;;;;4094846;28;20145;-72
2022/06/09 10:45:20;;;;;;;0.00;0.00;;;19.30;66.70;;;;;;4109772;28;20105;-69
2022/06/09 10:56:46;;;;;;;0.00;0.00;;;18.90;71.10;;;;;;4081047;28;20107;-72
2022/06/09 10:59:24;;;;;;;0.00;0.00;;;19.00;70.50;;;;;;4115190;28;20675;-71
2022/06/09 11:01:51;;;;;;;0.00;0.00;;;19.10;70.10;;;;;;4091933;28;20055;-71
2022/06/09 11:04:20;;;;;;;0.00;0.00;;;19.20;69.80;;;;;;4115519;28;20067;-71
2022/06/09 11:06:55;;;;;;;0.00;0.00;;;19.30;69.20;;;;;;4118799;28;20046;-72
2022/06/09 11:09:32;;;;;;;0.00;0.00;;;19.40;70.50;;;;;;4131817;28;20050;-71
2022/06/09 11:12:09;;;;;;;0.00;0.00;;;19.40;71.50;;;;;;4109591;28;20046;-72
2022/06/09 11:14:52;;;;;;;0.00;0.00;;;19.50;71.50;;;;;;4131886;28;20049;-73
2022/06/09 11:17:32;;;;;;;0.00;0.00;;;19.70;71.40;;;;;;4131954;28;20081;-72
2022/06/09 11:20:20;;;;;;;0.00;0.00;;;19.70;70.50;;;;;;4117242;28;20133;-71
2022/06/09 11:22:54;;;;;;;0.00;0.00;;;19.90;70.90;;;;;;4123930;28;20088;-70
2022/06/09 11:25:21;;;;;;;0.00;0.00;;;20.00;70.40;;;;;;4102538;28;20118;-73
2022/06/09 11:28:18;;;;;;;0.00;0.00;;;20.10;69.60;;;;;;4143207;28;20127;-73
2022/06/09 11:31:02;;;;;;;0.00;0.00;;;20.10;69.40;;;;;;4098580;28;20059;-72
2022/06/09 11:33:42;;;;;;;0.00;0.00;;;20.10;68.80;;;;;;4113923;28;20055;-69
2022/06/09 11:36:28;;;;;;;0.00;0.00;;;20.10;68.30;;;;;;4107821;28;20369;-72
2022/06/09 11:39:23;;;;;;;0.00;0.00;;;20.00;68.20;;;;;;4104288;28;20039;-70
2022/06/09 11:42:20;;;;;;;0.00;0.00;;;19.80;67.50;;;;;;4116492;28;20035;-70
2022/06/09 11:44:48;;;;;;;0.00;0.00;;;19.70;68.70;;;;;;4094248;28;20130;-70
2022/06/09 11:47:21;;;;;;;0.00;0.00;;;19.90;69.90;;;;;;4128901;28;20113;-71
2022/06/09 11:49:50;;;;;;;0.00;0.00;;;19.90;68.40;;;;;;4092076;28;20472;-72
2022/06/09 11:52:20;;;;;;;0.00;0.00;;;19.90;68.30;;;;;;4114945;28;20113;-72
2022/06/09 11:55:01;;;;;;;0.00;0.00;;;20.00;68.20;;;;;;4118293;28;20134;-70
2022/06/09 11:57:45;;;;;;;0.00;0.00;;;20.00;68.30;;;;;;4110891;28;20047;-69
2022/06/09 12:00:22;;;;;;;0.00;0.00;;;20.00;69.30;;;;;;4083370;28;20058;-71
2022/06/09 12:03:02;;;;;;;0.00;0.00;;;19.90;68.90;;;;;;4131447;28;20256;-71
2022/06/09 12:05:47;;;;;;;0.00;0.00;;;19.80;68.10;;;;;;4110812;28;20069;-70
2022/06/09 12:08:28;;;;;;;0.00;0.00;;;19.70;67.90;;;;;;4129336;28;20061;-71
2022/06/09 12:10:58;;;;;;;0.00;0.00;;;19.60;68.10;;;;;;4109756;28;20086;-71
2022/06/09 12:13:34;;;;;;;0.00;0.00;;;19.50;70.90;;;;;;4145818;28;20061;-74
2022/06/09 12:16:19;;;;;;;0.00;0.00;;;19.20;73.00;;;;;;4133722;28;20133;-72
2022/06/09 12:19:07;;;;;;;0.00;0.00;;;18.90;75.10;;;;;;4126994;28;20450;-71
2022/06/09 12:21:35;;;;;;;0.00;0.00;;;18.80;75.80;;;;;;4119429;28;20120;-73
2022/06/09 12:24:26;;;;;;;0.00;0.00;;;18.70;75.00;;;;;;4122050;28;20124;-71
2022/06/09 12:26:55;;;;;;;0.00;0.00;;;18.70;74.80;;;;;;4147186;28;20092;-69
2022/06/09 12:29:40;;;;;;;0.00;0.00;;;18.30;74.70;;;;;;4111510;28;20045;-72
2022/06/09 12:32:08;;;;;;;0.00;0.00;;;17.90;76.70;;;;;;4132613;28;20089;-70
2022/06/09 12:34:33;;;;;;;0.00;0.00;;;17.90;79.00;;;;;;4118263;28;20121;-71
2022/06/09 12:36:58;;;;;;;0.00;0.00;;;18.10;78.40;;;;;;4147365;28;20084;-69
2022/06/09 12:39:26;;;;;;;0.00;0.00;;;18.30;77.40;;;;;;4120557;28;20054;-69
2022/06/09 12:41:57;;;;;;;0.00;0.00;;;18.40;75.70;;;;;;4119814;28;20047;-73
2022/06/09 12:44:22;;;;;;;0.00;0.00;;;18.30;75.60;;;;;;4125452;28;20081;-71
2022/06/09 12:46:52;;;;;;;0.00;0.00;;;18.30;76.80;;;;;;4134248;28;20050;-71
2022/06/09 12:49:17;;;;;;;0.00;0.00;;;18.30;75.90;;;;;;4121037;28;20038;-71
2022/06/09 12:51:42;;;;;;;0.00;0.00;;;18.40;74.60;;;;;;4133719;28;20433;-70
2022/06/09 12:54:17;;;;;;;0.00;0.00;;;18.50;74.80;;;;;;4103729;28;20066;-72
2022/06/09 12:56:50;;;;;;;0.00;0.00;;;18.60;74.00;;;;;;4110171;28;20030;-71
2022/06/09 12:59:25;;;;;;;0.00;0.00;;;18.60;73.50;;;;;;4115584;28;20113;-72
2022/06/09 13:02:00;;;;;;;0.00;0.00;;;18.80;73.70;;;;;;4099284;28;20470;-71
2022/06/09 13:04:24;;;;;;;0.00;0.00;;;19.00;75.60;;;;;;4117665;28;20054;-69
2022/06/09 13:06:48;;;;;;;0.00;0.00;;;19.20;74.90;;;;;;4107384;28;20117;-71
2022/06/09 13:09:16;;;;;;;0.00;0.00;;;19.40;74.10;;;;;;4117405;28;20134;-70
2022/06/09 13:14:39;;;;;;;0.00;0.00;;;19.70;72.70;;;;;;4098740;28;20473;-70
2022/06/09 13:17:17;;;;;;;0.00;0.00;;;19.90;72.60;;;;;;4074721;29;20546;-70
2022/06/09 13:19:40;;;;;;;0.00;0.00;;;20.00;72.00;;;;;;4094373;28;20367;-72
2022/06/09 13:22:07;;;;;;;0.00;0.00;;;19.80;72.00;;;;;;4092226;28;20039;-70
2022/06/09 13:24:32;;;;;;;0.00;0.00;;;20.00;72.30;;;;;;4117109;28;20102;-70
2022/06/09 13:26:58;;;;;;;0.00;0.00;;;20.20;71.00;;;;;;4119943;28;20059;-71
2022/06/09 13:29:38;;;;;;;0.00;0.00;;;20.30;70.10;;;;;;4117608;28;20055;-72
2022/06/09 13:32:24;;;;;;;0.00;0.00;;;20.40;66.30;;;;;;4079380;28;20052;-74
2022/06/09 13:34:51;;;;;;;0.00;0.00;;;20.40;67.80;;;;;;4119550;28;20054;-71
2022/06/09 13:37:25;;;;;;;0.00;0.00;;;20.40;67.90;;;;;;4103166;28;20404;-71
2022/06/09 13:40:05;;;;;;;0.00;0.00;;;20.50;67.70;;;;;;4104996;28;20051;-73
2022/06/09 13:42:29;;;;;;;0.00;0.00;;;20.30;68.10;;;;;;4120897;28;20129;-69
2022/06/09 13:44:59;;;;;;;0.00;0.00;;;19.30;69.80;;;;;;4119325;28;20082;-72
2022/06/09 13:47:31;;;;;;;0.00;0.00;;;18.50;74.30;;;;;;4090241;28;20066;-69
2022/06/09 13:49:59;;;;;;;0.00;0.00;;;17.70;79.50;;;;;;4119213;28;20121;-71
2022/06/09 13:52:34;;;;;;;0.00;0.00;;;17.30;81.70;;;;;;4105454;28;20086;-72
2022/06/09 13:55:03;;;;;;;0.00;0.00;;;17.00;84.20;;;;;;4079748;28;20145;-71
2022/06/09 13:57:35;;;;;;;0.00;0.00;;;16.90;85.10;;;;;;4118041;28;20453;-71
2022/06/09 13:59:59;;;;;;;0.00;0.00;;;16.80;85.60;;;;;;4119700;28;20039;-72
2022/06/09 14:02:29;;;;;;;0.00;0.00;;;16.50;87.80;;;;;;4119015;28;20141;-71
2022/06/09 14:04:51;;;;;;;0.00;0.00;;;16.50;88.00;;;;;;4108922;28;20046;-73
2022/06/09 14:07:15;;;;;;;0.00;0.00;;;16.50;87.90;;;;;;4105773;28;20058;-73
2022/06/09 14:09:37;;;;;;;0.00;0.00;;;16.60;88.10;;;;;;4115776;28;20047;-71
2022/06/09 14:11:59;;;;;;;0.00;0.00;;;16.60;88.10;;;;;;4111334;28;20200;-70
2022/06/09 14:14:44;;;;;;;0.00;0.00;;;16.70;88.40;;;;;;4105496;28;20047;-71
2022/06/09 14:17:07;;;;;;;0.00;0.00;;;16.80;88.60;;;;;;4096694;28;20071;-73
2022/06/09 14:19:29;;;;;;;0.00;0.00;;;16.80;88.30;;;;;;4108925;28;20055;-70
2022/06/09 14:21:53;;;;;;;0.00;0.00;;;17.00;88.00;;;;;;4118283;28;20075;-72
2022/06/09 14:24:18;;;;;;;0.00;0.00;;;17.20;87.20;;;;;;4118862;28;20485;-73
2022/06/09 14:26:40;;;;;;;0.00;0.00;;;17.30;86.90;;;;;;4105432;28;20051;-71
2022/06/09 14:29:14;;;;;;;0.00;0.00;;;17.30;86.80;;;;;;4108174;28;20043;-73
2022/06/09 14:31:44;;;;;;;0.00;0.00;;;17.50;86.80;;;;;;4118553;28;20039;-74
2022/06/09 14:34:11;;;;;;;0.00;0.00;;;17.60;85.70;;;;;;4095595;28;20043;-76
2022/06/09 14:36:38;;;;;;;0.00;0.00;;;17.60;85.00;;;;;;4094304;28;20058;-69
2022/06/09 14:39:02;;;;;;;0.00;0.00;;;17.60;85.10;;;;;;4092998;28;20050;-70
2022/06/09 14:41:24;;;;;;;0.00;0.00;;;17.70;85.20;;;;;;4103138;28;20047;-73
2022/06/09 14:43:49;;;;;;;0.00;0.00;;;17.80;85.10;;;;;;4105148;28;20422;-71
2022/06/09 14:46:22;;;;;;;0.00;0.00;;;17.80;85.30;;;;;;4105327;28;20397;-71
2022/06/09 14:48:44;;;;;;;0.00;0.00;;;17.80;84.70;;;;;;4092204;28;20066;-69
2022/06/09 14:51:08;;;;;;;0.00;0.00;;;17.60;83.50;;;;;;4082912;28;20113;-72
2022/06/09 14:53:30;;;;;;;0.00;0.00;;;17.40;84.60;;;;;;4118345;28;20051;-73
2022/06/09 14:55:55;;;;;;;0.00;0.00;;;17.40;84.70;;;;;;4091822;28;20055;-73
2022/06/09 14:58:22;;;;;;;0.00;0.00;;;17.50;84.40;;;;;;4097293;28;20055;-70
2022/06/09 15:00:49;;;;;;;0.00;0.00;;;17.60;83.80;;;;;;4103398;28;20458;-70
2022/06/09 15:03:12;;;;;;;0.00;0.00;;;17.60;84.80;;;;;;4112442;28;20489;-69
2022/06/09 15:05:52;;;;;;;0.00;0.00;;;17.60;84.60;;;;;;4116366;28;20116;-70
2022/06/09 15:08:16;;;;;;;0.00;0.00;;;17.50;84.60;;;;;;4105033;28;20055;-70
2022/06/09 15:10:53;;;;;;;0.00;0.00;;;17.60;84.50;;;;;;4105233;28;20062;-70
2022/06/09 15:13:15;;;;;;;0.00;0.00;;;17.60;83.80;;;;;;4118567;28;20377;-72
2022/06/09 15:15:38;;;;;;;0.00;0.00;;;17.50;84.10;;;;;;4105259;28;20086;-70
2022/06/09 15:18:06;;;;;;;0.00;0.00;;;17.60;84.40;;;;;;4104758;28;20047;-72
2022/06/09 15:20:32;;;;;;;0.00;0.00;;;17.70;84.50;;;;;;4104496;28;20130;-74
2022/06/09 15:22:54;;;;;;;0.00;0.00;;;17.80;84.00;;;;;;4104602;28;20083;-72
2022/06/09 15:25:17;;;;;;;0.00;0.00;;;17.70;82.60;;;;;;4076276;28;20067;-73
2022/06/09 15:27:46;;;;;;;0.00;0.00;;;17.60;82.40;;;;;;4118268;28;20047;-72
2022/06/09 15:30:14;;;;;;;0.00;0.00;;;17.70;81.80;;;;;;4078236;28;20054;-71
2022/06/09 15:32:36;;;;;;;0.00;0.00;;;17.90;82.00;;;;;;4118371;28;20058;-72
2022/06/09 15:35:00;;;;;;;0.00;0.00;;;17.80;80.80;;;;;;4106605;28;20163;-71
2022/06/09 15:37:26;;;;;;;0.00;0.00;;;17.60;80.50;;;;;;4106278;28;20039;-72
2022/06/09 15:39:57;;;;;;;0.00;0.00;;;17.30;81.30;;;;;;4105915;28;20172;-73
2022/06/09 15:42:23;;;;;;;0.00;0.00;;;17.40;82.50;;;;;;4104855;28;20094;-73
2022/06/09 15:44:48;;;;;;;0.00;0.00;;;17.30;82.40;;;;;;4088259;29;20470;-70
2022/06/09 15:47:10;;;;;;;0.00;0.00;;;17.30;82.30;;;;;;4103261;28;20055;-71
2022/06/09 15:49:32;;;;;;;0.00;0.00;;;17.40;82.10;;;;;;4102449;28;20419;-70
2022/06/09 15:51:54;;;;;;;0.00;0.00;;;17.60;81.70;;;;;;4121237;28;20066;-70
2022/06/09 15:54:18;;;;;;;0.00;0.00;;;17.70;82.00;;;;;;4108238;28;20189;-72
2022/06/09 15:56:40;;;;;;;0.00;0.00;;;17.80;80.90;;;;;;4121201;28;20050;-71
2022/06/09 15:59:02;;;;;;;0.00;0.00;;;17.60;79.90;;;;;;4107688;28;20087;-70
2022/06/09 16:01:24;;;;;;;0.00;0.00;;;17.70;79.70;;;;;;4121142;28;20124;-71
2022/06/09 16:03:51;;;;;;;0.00;0.00;;;17.70;79.20;;;;;;4107734;28;20082;-70
2022/06/09 16:06:16;;;;;;;0.00;0.00;;;17.90;78.80;;;;;;4094870;28;20043;-74
2022/06/09 16:08:43;;;;;;;0.00;0.00;;;17.80;77.70;;;;;;4098819;28;20093;-71
2022/06/09 16:11:10;;;;;;;0.00;0.00;;;17.80;77.90;;;;;;4120578;28;20047;-71
2022/06/09 16:13:32;;;;;;;0.00;0.00;;;17.80;77.60;;;;;;4093495;29;20043;-71
2022/06/09 16:15:54;;;;;;;0.00;0.00;;;17.80;77.80;;;;;;4113742;28;20054;-70
2022/06/09 16:18:24;;;;;;;0.00;0.00;;;17.90;78.60;;;;;;4090201;28;20052;-71
2022/06/09 16:20:51;;;;;;;0.00;0.00;;;17.90;78.20;;;;;;4120845;28;20114;-73
2022/06/09 16:23:16;;;;;;;0.00;0.00;;;17.90;78.20;;;;;;4107652;28;20055;-73
2022/06/09 16:25:38;;;;;;;0.00;0.00;;;17.90;78.20;;;;;;4120655;28;20043;-71